Time;durP1;ratioP1;P1;durP2;ratioP2;P2;SDS_P1;SDS_P2;PMS_P1;PMS_P2;Temp;Humidity;BMP_temperature;BMP_pressure;BME280_temperature;BME280_humidity;BME280_pressure;Samples;Min_cycle;Max_cycle;Signal;HPM_P1;HPM_P2
2023/07/06 00:00:51;;;;;;;8.30;3.60;;;12.50;99.90;;;;;;5074400;28;20059;-74
2023/07/06 00:03:17;;;;;;;9.20;3.85;;;12.50;99.90;;;;;;5075085;28;20091;-73
2023/07/06 00:05:44;;;;;;;7.63;4.15;;;12.50;99.90;;;;;;5074835;28;20040;-73
2023/07/06 00:08:16;;;;;;;6.38;3.70;;;12.50;99.90;;;;;;5075193;28;20043;-73
2023/07/06 00:10:44;;;;;;;8.63;4.10;;;12.40;99.90;;;;;;5074677;28;20094;-73
2023/07/06 00:13:11;;;;;;;10.00;4.50;;;12.40;99.90;;;;;;5074177;28;20123;-73
2023/07/06 00:15:40;;;;;;;11.48;4.05;;;12.40;99.90;;;;;;5074743;28;20056;-73
2023/07/06 00:18:05;;;;;;;9.77;4.00;;;12.40;99.90;;;;;;5074581;28;20037;-73
2023/07/06 00:20:33;;;;;;;9.68;3.90;;;12.50;99.90;;;;;;5075076;28;20067;-73
2023/07/06 00:23:02;;;;;;;10.40;4.30;;;12.50;99.90;;;;;;5056959;28;20127;-73
2023/07/06 00:25:33;;;;;;;10.15;4.53;;;12.50;99.90;;;;;;5056501;28;20130;-73
2023/07/06 00:28:24;;;;;;;6.28;4.03;;;12.50;99.90;;;;;;5057443;28;20053;-73
2023/07/06 00:33:18;;;;;;;8.80;4.38;;;12.50;99.90;;;;;;5057118;28;20064;-72
2023/07/06 00:35:47;;;;;;;8.38;4.72;;;12.50;99.90;;;;;;5064550;28;20415;-73
2023/07/06 00:38:18;;;;;;;8.82;4.55;;;12.50;99.90;;;;;;5088358;28;20066;-73
2023/07/06 00:40:56;;;;;;;8.35;4.63;;;12.50;99.90;;;;;;5055853;28;20044;-73
2023/07/06 00:43:24;;;;;;;10.05;4.40;;;12.50;99.90;;;;;;5074608;28;20036;-74
2023/07/06 00:46:03;;;;;;;8.43;4.72;;;12.50;99.90;;;;;;5074818;28;20055;-73
2023/07/06 00:48:32;;;;;;;8.73;4.53;;;12.40;99.90;;;;;;5074813;28;20112;-73
2023/07/06 00:51:04;;;;;;;10.05;4.63;;;12.40;99.90;;;;;;5056272;28;20188;-72
2023/07/06 00:53:38;;;;;;;10.55;4.40;;;12.40;99.90;;;;;;5073890;28;20065;-72
2023/07/06 00:56:07;;;;;;;10.20;4.78;;;12.40;99.90;;;;;;5056161;28;20059;-73
2023/07/06 00:58:40;;;;;;;11.02;4.47;;;12.40;99.90;;;;;;5055806;28;20072;-73
2023/07/06 01:01:11;;;;;;;8.02;4.30;;;12.40;99.90;;;;;;5060510;28;20041;-73
2023/07/06 01:03:43;;;;;;;8.50;4.50;;;12.40;99.90;;;;;;5036292;28;20041;-73
2023/07/06 01:06:17;;;;;;;8.20;4.63;;;12.50;99.90;;;;;;5053569;28;20056;-73
2023/07/06 01:08:43;;;;;;;9.63;4.30;;;12.50;99.90;;;;;;5075376;28;20047;-73
2023/07/06 01:11:09;;;;;;;8.77;4.40;;;12.50;99.90;;;;;;5093749;28;20032;-73
2023/07/06 01:13:36;;;;;;;9.85;4.70;;;12.50;99.90;;;;;;5093718;28;20479;-73
2023/07/06 01:18:59;;;;;;;8.93;3.80;;;12.40;99.90;;;;;;4327087;26;20110;-73
2023/07/06 01:21:38;;;;;;;9.00;4.15;;;12.40;99.90;;;;;;5032015;28;20128;-73
2023/07/06 01:24:25;;;;;;;10.82;4.07;;;12.40;99.90;;;;;;5043068;28;20049;-73
2023/07/06 01:27:24;;;;;;;8.35;4.07;;;12.40;99.90;;;;;;5033841;28;20053;-73
2023/07/06 01:30:06;;;;;;;10.43;4.57;;;12.60;99.90;;;;;;4981275;28;20077;-73
2023/07/06 01:32:38;;;;;;;7.93;4.15;;;12.60;99.90;;;;;;5044630;28;20068;-74
2023/07/06 01:35:25;;;;;;;8.40;4.28;;;12.60;99.90;;;;;;5035005;28;20130;-74
2023/07/06 01:37:54;;;;;;;7.10;4.15;;;12.60;99.90;;;;;;5030434;28;20049;-74
2023/07/06 01:40:23;;;;;;;8.75;4.70;;;12.60;99.90;;;;;;5035200;28;20049;-74
2023/07/06 01:42:49;;;;;;;9.73;4.68;;;12.60;99.90;;;;;;5052857;28;20041;-73
2023/07/06 01:45:18;;;;;;;6.45;4.60;;;12.60;99.90;;;;;;5053316;28;20052;-74
2023/07/06 01:47:56;;;;;;;6.20;4.45;;;12.60;99.90;;;;;;5052769;28;20077;-74
2023/07/06 01:50:45;;;;;;;8.30;4.53;;;12.50;99.90;;;;;;5051272;28;20456;-74
2023/07/06 01:53:38;;;;;;;6.55;4.20;;;12.50;99.90;;;;;;5021817;28;20064;-74
2023/07/06 01:56:17;;;;;;;9.63;4.70;;;12.50;99.90;;;;;;5034740;28;20049;-74
2023/07/06 01:59:01;;;;;;;8.18;4.45;;;12.40;99.90;;;;;;5034752;28;20045;-74
2023/07/06 02:01:42;;;;;;;9.52;4.50;;;12.30;99.90;;;;;;5053016;28;20056;-73
2023/07/06 02:04:08;;;;;;;11.70;4.50;;;12.40;99.90;;;;;;5052826;28;20126;-74
2023/07/06 02:06:37;;;;;;;7.97;4.72;;;12.30;99.90;;;;;;5032529;28;20045;-74
2023/07/06 02:09:04;;;;;;;9.05;4.45;;;12.30;99.90;;;;;;5052454;28;20040;-73
2023/07/06 02:11:32;;;;;;;6.60;4.85;;;12.20;99.90;;;;;;5052771;28;20489;-74
2023/07/06 02:13:58;;;;;;;6.57;4.45;;;12.20;99.90;;;;;;5035235;28;20099;-74
2023/07/06 02:16:23;;;;;;;8.52;4.80;;;12.00;99.90;;;;;;5033062;28;20052;-74
2023/07/06 02:18:49;;;;;;;;;;;11.90;99.90;;;;;;5052032;28;20562;-74
2023/07/06 02:21:15;;;;;;;7.28;5.03;;;11.80;99.90;;;;;;5034741;28;19924;-74
2023/07/06 02:23:43;;;;;;;7.22;4.65;;;11.80;99.90;;;;;;5052295;28;20102;-73
2023/07/06 02:26:12;;;;;;;6.70;4.95;;;11.70;99.90;;;;;;5034991;28;20124;-73
2023/07/06 02:28:42;;;;;;;8.05;4.90;;;11.60;99.90;;;;;;5052392;28;20041;-74
2023/07/06 02:31:08;;;;;;;7.38;5.18;;;11.60;99.90;;;;;;5051792;28;20045;-74
2023/07/06 02:33:36;;;;;;;7.82;4.72;;;11.60;99.90;;;;;;5034162;28;20041;-73
2023/07/06 02:36:03;;;;;;;6.78;4.47;;;11.50;99.90;;;;;;5033615;28;20481;-73
2023/07/06 02:38:29;;;;;;;10.77;5.00;;;11.50;99.90;;;;;;5051373;28;20507;-73
2023/07/06 02:40:55;;;;;;;10.55;4.72;;;11.50;99.90;;;;;;5051619;28;20068;-74
2023/07/06 02:43:21;;;;;;;8.43;5.50;;;11.40;99.90;;;;;;5034714;28;20512;-74
2023/07/06 02:45:56;;;;;;;6.18;4.97;;;11.40;99.90;;;;;;5051869;28;20044;-74
2023/07/06 02:48:24;;;;;;;9.32;5.45;;;11.40;99.90;;;;;;5034328;28;20049;-74
2023/07/06 02:50:51;;;;;;;8.30;5.10;;;11.30;99.90;;;;;;5034012;28;20045;-74
2023/07/06 02:53:18;;;;;;;8.05;5.22;;;11.30;99.90;;;;;;5313130;22;20550;-72
2023/07/06 02:55:48;;;;;;;8.15;5.10;;;11.30;99.90;;;;;;5054279;28;20064;-71
2023/07/06 02:58:14;;;;;;;8.07;5.00;;;11.30;99.90;;;;;;5051428;28;20048;-71
2023/07/06 03:00:42;;;;;;;7.38;4.95;;;11.30;99.90;;;;;;5050163;28;20040;-71
2023/07/06 03:03:09;;;;;;;7.85;4.95;;;11.30;99.90;;;;;;5051606;28;20041;-74
2023/07/06 03:05:35;;;;;;;8.60;5.38;;;11.30;99.90;;;;;;5071813;28;20049;-74
2023/07/06 03:08:05;;;;;;;7.47;5.13;;;11.20;99.90;;;;;;5072026;28;20120;-74
2023/07/06 03:10:32;;;;;;;8.88;4.93;;;11.30;99.90;;;;;;5054556;28;20057;-73
2023/07/06 03:12:59;;;;;;;9.20;5.18;;;11.30;99.90;;;;;;5070465;28;20052;-73
2023/07/06 03:15:25;;;;;;;10.95;5.18;;;11.30;99.90;;;;;;5072061;28;20369;-74
2023/07/06 03:17:51;;;;;;;8.75;4.75;;;11.30;99.90;;;;;;5071254;28;20047;-73
2023/07/06 03:20:19;;;;;;;11.35;5.60;;;11.30;99.90;;;;;;5060632;28;20432;-74
2023/07/06 03:22:51;;;;;;;13.30;5.65;;;11.40;99.90;;;;;;5052152;28;20072;-73
2023/07/06 03:25:18;;;;;;;11.10;5.55;;;11.40;99.90;;;;;;5052177;28;20064;-73
2023/07/06 03:27:48;;;;;;;9.40;5.28;;;11.40;99.90;;;;;;5051485;28;20082;-73
2023/07/06 03:30:19;;;;;;;9.10;5.13;;;11.50;99.90;;;;;;5052410;28;20044;-73
2023/07/06 03:32:45;;;;;;;9.23;5.45;;;11.60;99.90;;;;;;5058564;28;20484;-74
2023/07/06 03:35:13;;;;;;;11.90;5.82;;;11.60;99.90;;;;;;5071882;28;20040;-73
2023/07/06 03:37:42;;;;;;;8.23;4.88;;;11.80;99.90;;;;;;5071547;28;20492;-73
2023/07/06 03:40:10;;;;;;;9.60;5.38;;;11.80;99.90;;;;;;5071348;28;20040;-73
2023/07/06 03:42:41;;;;;;;8.73;4.93;;;11.80;99.90;;;;;;5055588;28;20102;-74
2023/07/06 03:45:08;;;;;;;9.23;5.20;;;12.00;99.90;;;;;;5066398;28;20059;-73
2023/07/06 03:47:35;;;;;;;9.80;5.32;;;12.00;99.90;;;;;;5071903;28;20468;-73
2023/07/06 03:50:00;;;;;;;7.35;5.28;;;12.00;99.90;;;;;;5075560;28;20042;-74
2023/07/06 03:52:28;;;;;;;7.10;5.10;;;12.00;99.90;;;;;;5056911;28;20131;-73
2023/07/06 03:54:54;;;;;;;8.88;5.53;;;12.00;99.90;;;;;;5036763;28;20059;-74
2023/07/06 03:57:20;;;;;;;11.40;5.40;;;12.00;99.90;;;;;;5055758;28;20044;-73
2023/07/06 03:59:46;;;;;;;10.27;6.10;;;12.00;99.90;;;;;;5054947;28;20052;-74
2023/07/06 04:02:12;;;;;;;8.05;4.95;;;11.90;99.90;;;;;;5055050;28;20102;-73
2023/07/06 04:04:39;;;;;;;8.55;5.15;;;11.90;99.90;;;;;;5073522;28;20465;-73
2023/07/06 04:07:07;;;;;;;8.93;5.30;;;11.90;99.90;;;;;;5075444;28;20525;-74
2023/07/06 04:09:33;;;;;;;9.70;5.95;;;11.90;99.90;;;;;;5074821;28;20468;-73
2023/07/06 04:12:01;;;;;;;9.13;5.10;;;11.90;99.90;;;;;;5056063;28;20474;-74
2023/07/06 04:14:30;;;;;;;8.63;5.32;;;11.90;99.90;;;;;;5057081;28;20048;-74
2023/07/06 04:16:56;;;;;;;9.23;5.70;;;12.00;99.90;;;;;;5056319;28;20401;-74
2023/07/06 04:19:25;;;;;;;10.02;6.00;;;12.10;99.90;;;;;;5075204;28;20044;-74
2023/07/06 04:21:56;;;;;;;8.30;6.03;;;12.10;99.90;;;;;;5049785;28;20495;-74
2023/07/06 04:24:21;;;;;;;10.93;5.97;;;12.20;99.90;;;;;;5073977;28;20044;-73
2023/07/06 04:26:47;;;;;;;9.48;5.68;;;12.20;99.90;;;;;;5075135;28;20384;-74
2023/07/06 04:29:15;;;;;;;10.77;5.68;;;12.30;99.90;;;;;;5074447;28;20040;-74
2023/07/06 04:31:41;;;;;;;15.02;6.65;;;12.50;99.90;;;;;;5055605;28;20454;-74
2023/07/06 04:34:10;;;;;;;12.85;6.32;;;12.60;99.90;;;;;;5074707;28;20036;-74
2023/07/06 04:36:39;;;;;;;16.08;6.95;;;12.70;99.90;;;;;;5073569;28;20437;-72
2023/07/06 04:39:08;;;;;;;13.98;7.03;;;12.80;99.90;;;;;;5074956;28;20094;-74
2023/07/06 04:41:37;;;;;;;9.07;6.40;;;12.90;99.90;;;;;;5056317;28;20044;-73
2023/07/06 04:44:03;;;;;;;16.05;6.68;;;12.90;99.90;;;;;;5074443;28;20098;-74
2023/07/06 04:46:29;;;;;;;13.57;6.32;;;12.90;99.90;;;;;;5074175;28;20044;-73
2023/07/06 04:48:55;;;;;;;11.85;6.13;;;12.90;99.90;;;;;;5070714;28;20068;-73
2023/07/06 04:51:20;;;;;;;13.38;6.35;;;13.00;99.90;;;;;;5055911;28;20048;-73
2023/07/06 04:53:48;;;;;;;12.48;6.07;;;13.00;99.90;;;;;;5073993;28;20392;-72
2023/07/06 04:56:14;;;;;;;18.63;6.57;;;13.00;99.90;;;;;;5056146;28;20449;-72
2023/07/06 04:58:45;;;;;;;13.50;6.68;;;13.00;99.90;;;;;;5055356;28;20129;-72
2023/07/06 05:01:14;;;;;;;11.45;6.43;;;13.10;99.90;;;;;;5073440;28;20400;-73
2023/07/06 05:03:40;;;;;;;13.55;6.60;;;13.10;99.90;;;;;;5073405;28;20179;-73
2023/07/06 05:06:12;;;;;;;14.20;6.40;;;13.10;99.90;;;;;;5055633;28;20119;-72
2023/07/06 05:08:43;;;;;;;13.02;6.35;;;13.10;99.90;;;;;;5055733;28;20052;-73
2023/07/06 05:11:09;;;;;;;15.18;6.80;;;13.20;99.90;;;;;;5072330;28;20044;-72
2023/07/06 05:13:35;;;;;;;16.17;6.57;;;13.30;99.90;;;;;;5054506;28;20048;-73
2023/07/06 05:16:11;;;;;;;;;;;;;;;;;;;;;
2023/07/06 05:18:37;;;;;;;12.65;6.97;;;13.50;99.90;;;;;;5061120;28;20123;-75
2023/07/06 05:21:03;;;;;;;12.77;7.05;;;13.50;99.90;;;;;;5072711;28;20465;-74
2023/07/06 05:23:29;;;;;;;14.63;7.22;;;13.60;99.90;;;;;;5055525;28;20123;-73
2023/07/06 05:25:57;;;;;;;16.35;7.45;;;13.60;99.90;;;;;;5054468;28;20045;-72
2023/07/06 05:28:23;;;;;;;17.48;7.18;;;13.70;99.90;;;;;;5072902;28;20037;-73
2023/07/06 05:30:50;;;;;;;20.85;7.97;;;13.90;99.90;;;;;;5071809;28;20041;-79
2023/07/06 05:33:18;;;;;;;22.38;8.18;;;14.00;99.90;;;;;;5059885;28;20103;-74
2023/07/06 05:35:44;;;;;;;19.40;7.47;;;14.00;99.90;;;;;;5071721;28;20052;-79
2023/07/06 05:38:12;;;;;;;12.48;7.22;;;14.10;99.90;;;;;;5051801;28;20387;-80
2023/07/06 05:41:01;;;;;;;17.90;7.78;;;14.30;99.90;;;;;;5071632;28;20106;-74
2023/07/06 05:43:26;;;;;;;15.90;7.05;;;14.40;99.90;;;;;;5071827;28;20087;-75
2023/07/06 05:45:52;;;;;;;21.02;7.72;;;14.50;99.90;;;;;;5060575;28;20433;-75
2023/07/06 05:56:10;;;;;;;16.45;7.97;;;14.90;99.90;;;;;;5066904;28;20047;-82
2023/07/06 05:58:37;;;;;;;15.80;7.20;;;14.90;99.90;;;;;;5051019;28;20082;-73
2023/07/06 06:01:06;;;;;;;17.10;7.13;;;15.00;99.90;;;;;;5069903;28;20043;-74
2023/07/06 06:03:40;;;;;;;13.93;6.72;;;15.10;99.90;;;;;;5056644;28;20040;-73
2023/07/06 06:06:07;;;;;;;18.60;7.25;;;15.20;99.90;;;;;;5039585;28;20041;-75
2023/07/06 06:08:33;;;;;;;17.83;6.78;;;15.20;99.90;;;;;;5051971;28;20047;-74
2023/07/06 06:11:01;;;;;;;17.60;6.97;;;15.30;99.90;;;;;;5054148;28;20029;-73
2023/07/06 06:13:28;;;;;;;10.70;5.78;;;15.40;99.90;;;;;;5052718;28;20105;-73
2023/07/06 06:15:54;;;;;;;14.18;6.22;;;15.50;99.90;;;;;;5052120;28;20098;-73
2023/07/06 06:18:25;;;;;;;13.85;5.88;;;15.50;99.90;;;;;;5053004;28;20044;-74
2023/07/06 06:24:02;;;;;;;15.38;5.65;;;15.60;99.90;;;;;;4861322;26;20056;-73
2023/07/06 06:29:37;;;;;;;9.15;3.80;;;15.90;99.90;;;;;;5069308;28;20047;-74
2023/07/06 06:32:03;;;;;;;7.82;3.70;;;15.90;99.90;;;;;;5062568;28;20052;-73
2023/07/06 06:34:39;;;;;;;12.20;4.03;;;15.90;99.90;;;;;;5072519;28;20040;-74
2023/07/06 06:37:06;;;;;;;8.82;3.72;;;15.90;99.90;;;;;;5054076;28;20130;-75
2023/07/06 06:39:33;;;;;;;7.10;3.20;;;16.10;99.90;;;;;;5089957;28;20141;-78
2023/07/06 06:42:00;;;;;;;5.25;2.45;;;16.10;99.90;;;;;;5073956;28;20105;-75
2023/07/06 06:44:28;;;;;;;5.45;2.20;;;16.20;99.90;;;;;;5073934;28;20046;-76
2023/07/06 06:46:58;;;;;;;7.18;2.30;;;16.20;99.90;;;;;;5074050;28;20511;-74
2023/07/06 06:49:24;;;;;;;5.78;2.13;;;16.20;99.90;;;;;;5092390;28;20100;-77
2023/07/06 06:51:50;;;;;;;5.50;2.10;;;16.30;99.90;;;;;;5072568;28;20044;-77
2023/07/06 06:54:16;;;;;;;5.80;2.53;;;16.40;99.90;;;;;;5089310;28;20044;-75
2023/07/06 06:56:42;;;;;;;6.05;2.60;;;16.50;99.90;;;;;;5090133;28;20386;-76
2023/07/06 06:59:11;;;;;;;3.92;1.98;;;16.60;99.90;;;;;;5071992;28;20470;-75
2023/07/06 07:01:38;;;;;;;6.57;2.38;;;16.60;99.90;;;;;;5089719;28;20044;-74
2023/07/06 07:04:05;;;;;;;4.65;1.77;;;16.70;99.90;;;;;;5090710;28;20130;-74
2023/07/06 07:06:31;;;;;;;3.30;1.63;;;16.80;99.90;;;;;;5072663;28;20101;-74
2023/07/06 07:08:57;;;;;;;6.28;1.92;;;16.90;99.90;;;;;;5074073;28;20044;-75
2023/07/06 07:11:24;;;;;;;5.40;1.90;;;17.00;99.90;;;;;;5092122;28;20040;-75
2023/07/06 07:13:51;;;;;;;3.55;1.60;;;17.10;99.90;;;;;;5092254;28;20078;-73
2023/07/06 07:16:19;;;;;;;5.65;1.40;;;17.10;99.90;;;;;;5072148;28;20040;-72
2023/07/06 07:18:45;;;;;;;4.60;1.40;;;17.20;99.90;;;;;;5089679;28;20465;-71
2023/07/06 07:21:14;;;;;;;3.05;1.35;;;17.40;99.90;;;;;;5069128;28;20065;-72
2023/07/06 07:23:45;;;;;;;3.38;1.50;;;17.60;99.90;;;;;;5057008;28;20061;-72
2023/07/06 07:26:23;;;;;;;4.55;1.45;;;17.90;99.90;;;;;;5084317;28;20040;-76
2023/07/06 07:28:50;;;;;;;4.28;1.80;;;18.70;99.90;;;;;;5069907;28;20149;-76
2023/07/06 07:31:18;;;;;;;3.42;1.52;;;19.40;99.90;;;;;;5077526;28;20063;-73
2023/07/06 07:33:46;;;;;;;3.63;1.40;;;20.10;99.90;;;;;;5076837;28;20106;-74
2023/07/06 07:36:19;;;;;;;4.18;1.60;;;20.80;99.90;;;;;;5073484;28;20109;-74
2023/07/06 07:38:53;;;;;;;4.43;1.45;;;21.10;99.90;;;;;;5067953;28;20118;-75
2023/07/06 07:41:22;;;;;;;3.03;1.30;;;21.40;99.90;;;;;;5076896;28;20040;-75
2023/07/06 07:43:55;;;;;;;3.60;1.40;;;21.80;99.90;;;;;;5057139;28;20413;-72
2023/07/06 07:46:24;;;;;;;3.15;1.38;;;21.90;99.90;;;;;;5057809;28;20052;-78
2023/07/06 07:48:50;;;;;;;4.07;1.38;;;21.90;98.90;;;;;;5076833;28;20047;-77
2023/07/06 07:51:19;;;;;;;6.20;1.60;;;21.90;97.80;;;;;;5077595;28;20507;-75
2023/07/06 07:53:48;;;;;;;4.13;1.58;;;22.20;98.50;;;;;;5075153;28;20052;-75
2023/07/06 07:56:15;;;;;;;4.70;1.73;;;22.50;98.40;;;;;;5075610;28;20037;-76
2023/07/06 07:58:42;;;;;;;3.90;1.55;;;23.10;98.50;;;;;;5074062;28;20080;-78
2023/07/06 08:01:11;;;;;;;4.43;1.35;;;23.40;97.40;;;;;;5074964;28;20041;-75
2023/07/06 08:03:37;;;;;;;3.60;1.50;;;23.60;95.60;;;;;;5075274;28;20158;-76
2023/07/06 08:06:08;;;;;;;3.97;1.35;;;23.50;96.70;;;;;;5074978;28;20427;-76
2023/07/06 08:08:50;;;;;;;4.43;1.58;;;23.50;95.40;;;;;;5075953;28;20036;-78
2023/07/06 08:11:38;;;;;;;4.70;1.50;;;23.80;96.90;;;;;;5074097;28;20487;-79
2023/07/06 08:14:08;;;;;;;2.75;1.15;;;24.00;95.90;;;;;;5056279;28;20048;-76
2023/07/06 08:16:34;;;;;;;2.72;1.30;;;24.10;95.50;;;;;;5074404;28;20105;-83
2023/07/06 08:19:03;;;;;;;2.97;1.25;;;24.60;95.90;;;;;;5076072;28;20051;-81
2023/07/06 08:21:29;;;;;;;4.00;1.40;;;24.80;94.00;;;;;;5076956;28;20056;-74
2023/07/06 08:23:59;;;;;;;3.63;1.50;;;24.50;94.40;;;;;;5094568;28;20397;-79
2023/07/06 08:26:31;;;;;;;3.90;1.60;;;24.20;94.30;;;;;;5094808;28;20044;-94
2023/07/06 08:29:31;;;;;;;4.78;1.45;;;24.20;94.60;;;;;;5056982;28;20043;-83
2023/07/06 08:31:58;;;;;;;3.30;1.48;;;24.40;95.30;;;;;;5074830;28;20051;-81
2023/07/06 08:34:27;;;;;;;3.30;1.30;;;24.70;94.40;;;;;;5073372;28;20131;-81
2023/07/06 08:36:56;;;;;;;4.13;1.40;;;24.80;93.70;;;;;;5083690;28;20173;-79
2023/07/06 08:39:44;;;;;;;3.38;1.42;;;24.10;92.20;;;;;;5086391;28;20389;-79
2023/07/06 08:42:15;;;;;;;3.85;1.50;;;23.70;93.00;;;;;;5088016;28;20036;-76
2023/07/06 08:44:59;;;;;;;4.18;1.55;;;24.20;93.80;;;;;;5017389;28;20053;-81
2023/07/06 08:47:25;;;;;;;3.63;1.60;;;24.00;93.30;;;;;;5000511;28;20115;-79
2023/07/06 08:49:51;;;;;;;4.32;1.60;;;24.10;94.20;;;;;;5054806;28;20127;-83
2023/07/06 08:52:19;;;;;;;5.57;1.70;;;24.10;94.60;;;;;;5069454;28;20047;-81
2023/07/06 08:54:50;;;;;;;3.95;1.63;;;24.10;94.40;;;;;;5076279;28;20055;-79
2023/07/06 08:57:21;;;;;;;2.88;1.52;;;24.20;95.30;;;;;;5061950;28;20477;-76
2023/07/06 08:59:51;;;;;;;4.60;1.70;;;24.30;95.50;;;;;;5091021;28;20040;-76
2023/07/06 09:02:23;;;;;;;3.28;1.70;;;24.50;94.90;;;;;;5076761;28;20048;-80
2023/07/06 09:07:38;;;;;;;4.95;1.63;;;24.50;94.40;;;;;;5290336;22;20064;-80
2023/07/06 09:10:20;;;;;;;2.83;1.52;;;24.70;93.50;;;;;;5088831;28;20044;-76
2023/07/06 09:12:46;;;;;;;4.57;1.48;;;24.80;93.70;;;;;;5067112;28;20117;-77
2023/07/06 09:15:29;;;;;;;4.25;1.50;;;24.60;93.70;;;;;;5079703;28;20119;-76
2023/07/06 09:17:59;;;;;;;3.55;1.30;;;24.70;93.40;;;;;;5075580;28;20628;-76
2023/07/06 09:20:26;;;;;;;4.47;1.67;;;24.90;93.60;;;;;;5056393;28;20106;-77
2023/07/06 09:22:53;;;;;;;3.83;1.40;;;25.10;92.80;;;;;;5084789;28;20040;-76
2023/07/06 09:25:42;;;;;;;5.72;1.50;;;24.90;93.30;;;;;;5060550;28;20400;-77
2023/07/06 09:28:18;;;;;;;5.70;1.50;;;25.40;92.00;;;;;;5060230;28;20115;-76
2023/07/06 09:30:45;;;;;;;3.80;1.33;;;25.80;92.10;;;;;;5082923;28;20044;-77
2023/07/06 09:33:25;;;;;;;3.85;1.50;;;26.10;91.50;;;;;;5070169;28;20094;-76
2023/07/06 09:36:04;;;;;;;3.78;1.60;;;26.30;92.40;;;;;;5092395;28;20067;-76
2023/07/06 09:38:48;;;;;;;3.38;1.48;;;26.20;92.20;;;;;;5091225;28;20040;-76
2023/07/06 09:41:42;;;;;;;2.55;1.23;;;26.90;91.40;;;;;;5093253;28;20055;-77
2023/07/06 09:44:12;;;;;;;3.00;1.20;;;27.20;91.90;;;;;;5070150;28;20047;-77
2023/07/06 09:46:39;;;;;;;2.65;1.30;;;27.70;91.10;;;;;;5090581;28;20048;-77
2023/07/06 09:49:17;;;;;;;4.78;1.73;;;27.70;90.80;;;;;;5079137;28;20076;-77
2023/07/06 09:51:57;;;;;;;4.78;1.60;;;27.30;88.50;;;;;;5091234;28;20067;-77
2023/07/06 09:54:30;;;;;;;3.47;1.80;;;27.40;89.10;;;;;;5085129;28;20094;-77
2023/07/06 09:57:24;;;;;;;3.50;1.17;;;27.20;90.10;;;;;;5075115;28;20055;-76
2023/07/06 09:59:52;;;;;;;3.67;1.35;;;27.30;88.70;;;;;;5073198;28;20051;-75
2023/07/06 10:02:46;;;;;;;3.80;1.60;;;27.40;90.10;;;;;;5093169;28;20048;-79
2023/07/06 10:05:39;;;;;;;4.07;1.40;;;27.40;90.40;;;;;;5086630;28;20507;-73
2023/07/06 10:08:11;;;;;;;5.32;1.85;;;27.00;90.90;;;;;;5072440;28;20119;-73
2023/07/06 10:11:02;;;;;;;2.78;1.13;;;26.50;91.30;;;;;;5054781;28;20041;-72
2023/07/06 10:13:40;;;;;;;3.40;1.10;;;26.70;90.60;;;;;;5072597;28;20044;-75
2023/07/06 10:16:28;;;;;;;3.20;1.10;;;26.80;87.70;;;;;;5084249;28;20492;-73
2023/07/06 10:19:32;;;;;;;3.20;1.30;;;26.80;89.50;;;;;;5072044;28;20072;-72
2023/07/06 10:22:03;;;;;;;4.78;1.40;;;26.80;90.50;;;;;;5072415;28;20392;-73
2023/07/06 10:24:40;;;;;;;2.85;1.20;;;27.20;91.00;;;;;;5072246;28;20101;-75
2023/07/06 10:27:17;;;;;;;3.17;1.20;;;26.90;89.60;;;;;;5054405;28;20048;-74
2023/07/06 10:29:48;;;;;;;4.68;1.30;;;26.80;87.60;;;;;;5053998;28;20403;-74
2023/07/06 10:32:37;;;;;;;2.63;1.20;;;26.90;88.90;;;;;;5054545;28;20373;-74
2023/07/06 10:35:19;;;;;;;4.05;1.20;;;26.70;89.30;;;;;;5054555;28;20056;-76
2023/07/06 10:37:48;;;;;;;3.20;1.30;;;26.80;89.30;;;;;;5072159;28;20076;-80
2023/07/06 10:40:21;;;;;;;3.15;1.13;;;26.80;89.60;;;;;;5071494;28;20078;-77
2023/07/06 10:43:14;;;;;;;4.53;1.30;;;26.50;87.10;;;;;;5053832;28;20044;-79
2023/07/06 10:45:59;;;;;;;2.72;1.10;;;26.20;89.30;;;;;;5054659;28;20048;-79
2023/07/06 10:48:34;;;;;;;4.95;1.60;;;26.30;88.80;;;;;;5054267;28;20053;-76
2023/07/06 10:51:30;;;;;;;4.05;1.35;;;26.20;89.60;;;;;;5037580;28;20068;-79
2023/07/06 10:54:23;;;;;;;2.45;1.00;;;26.30;90.00;;;;;;5072152;28;20044;-78
2023/07/06 10:57:10;;;;;;;4.93;1.00;;;26.70;89.20;;;;;;5065768;28;20125;-77
2023/07/06 10:59:40;;;;;;;3.53;1.20;;;27.00;85.70;;;;;;5071933;28;20045;-75
2023/07/06 11:02:24;;;;;;;1.83;0.73;;;27.00;86.40;;;;;;5072607;28;20048;-76
2023/07/06 11:05:24;;;;;;;2.45;1.00;;;27.00;85.10;;;;;;5071406;28;20040;-76
2023/07/06 11:07:53;;;;;;;2.95;1.20;;;27.20;88.00;;;;;;5071467;28;20062;-76
2023/07/06 11:10:23;;;;;;;3.45;1.20;;;27.30;85.40;;;;;;5071992;28;20040;-78
2023/07/06 11:13:16;;;;;;;2.90;1.17;;;26.70;85.80;;;;;;5071579;28;20060;-72
2023/07/06 11:15:47;;;;;;;3.45;1.30;;;26.50;85.90;;;;;;5053959;28;20485;-76
2023/07/06 11:18:29;;;;;;;2.80;1.40;;;26.20;86.50;;;;;;5072075;28;20059;-73
2023/07/06 11:21:15;;;;;;;5.75;1.83;;;25.80;90.80;;;;;;5054149;28;20036;-74
2023/07/06 11:23:51;;;;;;;4.32;1.63;;;25.30;90.00;;;;;;5072095;28;20102;-74
2023/07/06 11:26:54;;;;;;;5.97;1.60;;;25.70;90.90;;;;;;5086839;28;20426;-70
2023/07/06 11:29:24;;;;;;;3.33;1.25;;;25.70;90.00;;;;;;5087886;28;20059;-72
2023/07/06 11:32:16;;;;;;;3.10;1.45;;;25.90;90.10;;;;;;5090377;28;20056;-73
2023/07/06 11:35:09;;;;;;;3.53;1.63;;;26.20;90.70;;;;;;5072520;28;20153;-70
2023/07/06 11:37:54;;;;;;;3.40;1.70;;;26.30;90.20;;;;;;5089839;28;20491;-70
2023/07/06 11:40:36;;;;;;;5.50;2.00;;;26.60;89.50;;;;;;5077131;28;20591;-71
2023/07/06 11:43:02;;;;;;;5.20;1.80;;;26.60;87.60;;;;;;5069859;28;20603;-70
2023/07/06 11:45:40;;;;;;;4.10;1.85;;;26.60;89.70;;;;;;5073634;28;20049;-70
2023/07/06 11:48:25;;;;;;;4.25;1.52;;;26.30;88.40;;;;;;5087842;28;20056;-71
2023/07/06 11:50:54;;;;;;;4.22;1.95;;;26.10;90.20;;;;;;5064505;28;20463;-70
2023/07/06 11:56:33;;;;;;;3.20;1.55;;;25.70;91.10;;;;;;5054052;28;20084;-70
2023/07/06 11:59:04;;;;;;;4.30;1.80;;;25.60;90.70;;;;;;5073601;28;20048;-71
2023/07/06 12:01:45;;;;;;;4.00;2.35;;;25.50;91.60;;;;;;5075174;28;20071;-71
2023/07/06 12:04:23;;;;;;;4.32;1.98;;;25.20;92.10;;;;;;5053296;28;20113;-71
2023/07/06 12:06:50;;;;;;;3.85;1.70;;;25.50;91.50;;;;;;5071505;28;20071;-71
2023/07/06 12:09:22;;;;;;;4.30;2.05;;;25.40;91.60;;;;;;5088240;28;20039;-72
2023/07/06 12:12:06;;;;;;;4.47;1.75;;;25.60;91.80;;;;;;5095139;28;20032;-75
2023/07/06 12:14:34;;;;;;;3.22;1.60;;;25.50;92.20;;;;;;5089008;28;20067;-75
2023/07/06 12:17:02;;;;;;;7.72;1.77;;;25.60;91.60;;;;;;5075117;28;20579;-72
2023/07/06 12:19:28;;;;;;;6.95;1.80;;;25.70;92.00;;;;;;5086923;28;20048;-70
2023/07/06 12:21:55;;;;;;;5.18;1.80;;;25.50;92.20;;;;;;5070902;28;20055;-71
2023/07/06 12:24:24;;;;;;;4.05;1.85;;;25.30;92.00;;;;;;5059798;28;20074;-72
2023/07/06 12:26:52;;;;;;;5.18;1.80;;;25.10;92.10;;;;;;5076443;28;20048;-72
2023/07/06 12:29:23;;;;;;;5.32;1.83;;;25.30;92.10;;;;;;5094045;28;20143;-72
2023/07/06 12:31:51;;;;;;;5.78;2.10;;;25.40;92.30;;;;;;5094326;28;20406;-72
2023/07/06 12:34:19;;;;;;;5.30;1.92;;;25.30;92.10;;;;;;5092581;28;20047;-71
2023/07/06 12:36:51;;;;;;;4.28;1.67;;;25.30;91.90;;;;;;5073914;28;20068;-71
2023/07/06 12:39:20;;;;;;;6.95;1.60;;;25.20;92.50;;;;;;5056629;28;20045;-73
2023/07/06 12:41:47;;;;;;;3.20;1.63;;;25.30;92.50;;;;;;5066774;28;20040;-73
2023/07/06 12:44:17;;;;;;;3.60;1.50;;;25.20;92.40;;;;;;5075719;28;20093;-73
2023/07/06 12:46:54;;;;;;;5.20;1.70;;;24.90;92.20;;;;;;5080083;28;20109;-75
2023/07/06 12:49:23;;;;;;;5.43;1.63;;;24.60;91.90;;;;;;5079487;28;20113;-76
2023/07/06 12:51:54;;;;;;;4.72;1.85;;;24.50;92.60;;;;;;5093710;28;20060;-75
2023/07/06 12:54:23;;;;;;;5.70;2.22;;;24.70;92.90;;;;;;5092881;28;20113;-75
2023/07/06 12:57:00;;;;;;;4.70;1.92;;;24.70;92.00;;;;;;5073788;28;20044;-74
2023/07/06 12:59:32;;;;;;;4.57;1.73;;;24.60;93.20;;;;;;5058281;28;20051;-74
2023/07/06 13:01:58;;;;;;;5.70;1.70;;;24.40;93.50;;;;;;5056578;28;20083;-74
2023/07/06 13:04:43;;;;;;;2.83;1.42;;;24.30;92.90;;;;;;5074032;28;20052;-73
2023/07/06 13:07:08;;;;;;;3.97;1.50;;;24.30;92.20;;;;;;5061766;28;20143;-74
2023/07/06 13:09:35;;;;;;;4.43;1.77;;;24.30;91.90;;;;;;5061350;28;20128;-74
2023/07/06 13:12:11;;;;;;;3.00;1.40;;;24.40;92.30;;;;;;5057527;28;20445;-74
2023/07/06 13:14:40;;;;;;;5.03;1.70;;;24.40;92.70;;;;;;5062526;28;20043;-75
2023/07/06 13:17:16;;;;;;;3.33;1.48;;;24.40;92.60;;;;;;5094009;28;20438;-74
2023/07/06 13:19:45;;;;;;;3.78;1.70;;;24.20;92.50;;;;;;5091953;28;20044;-74
2023/07/06 13:22:12;;;;;;;6.75;1.77;;;24.30;92.70;;;;;;5086302;28;20044;-73
2023/07/06 13:24:40;;;;;;;5.43;1.70;;;24.50;93.40;;;;;;5066788;28;20088;-75
2023/07/06 13:27:12;;;;;;;6.28;2.05;;;24.60;93.20;;;;;;5066882;28;20049;-76
2023/07/06 13:29:41;;;;;;;4.63;1.65;;;24.50;93.40;;;;;;5084792;28;20052;-75
2023/07/06 13:32:15;;;;;;;7.00;2.10;;;24.10;91.80;;;;;;5082412;28;20047;-74
2023/07/06 13:34:48;;;;;;;4.13;2.10;;;24.10;92.10;;;;;;5062687;28;20097;-70